VTBD/DMK METAR and TAF weather

Enter ICAO airport designator
Station Type Date Time Source
VTBD METAR 2021/05/12 04:00 UTC NOAA

VTBD 120400Z 22004KT 9999 FEW020 34/26 Q1008 NOSIG


Station Type Date Time Source
VTBD Decoded METAR 2021/05/12 04:00 UTC NOAA

Don Muang, Thailand (VTBD) 13-55N 100-36E 12M
May 12, 2021 - 12:00 AM EDT / 2021.05.12 0400 UTC
Wind: from the SW (220 degrees) at 5 MPH (4 KT):0
Visibility: greater than 7 mile(s):0
Sky conditions: mostly clear
Temperature: 93 F (34 C)
Heat index: 109.6 F (43.1 C):1
Dew Point: 78 F (26 C)
Relative Humidity: 63%
Pressure (altimeter): 29.77 in. Hg (1008 hPa)
ob: VTBD 120400Z 22004KT 9999 FEW020 34/26 Q1008 NOSIG
cycle: 4

Station Type Date Time Source
VTBD TAF 2021/05/11 18:36 UTC NOAA

TAF TAF VTBD 111700Z 1118/1224 19005KT 9999 FEW020
BECMG 1120/1122 11005KT
BECMG 1201/1203 21005KT

Example: see airport list